sensor_id;sensor_type;location;lat;lon;timestamp;P1;durP1;ratioP1;P2;durP2;ratioP2
18647;SDS011;9453;50.294;18.644;2022-12-29T05:03:24;6.93;;;2.50;;
18647;SDS011;9453;50.294;18.644;2022-12-29T05:05:52;7.40;;;2.73;;
18647;SDS011;9453;50.294;18.644;2022-12-29T05:08:20;7.07;;;2.67;;
18647;SDS011;9453;50.294;18.644;2022-12-29T05:10:47;6.83;;;2.53;;
18647;SDS011;9453;50.294;18.644;2022-12-29T05:13:16;7.07;;;2.53;;
18647;SDS011;9453;50.294;18.644;2022-12-29T05:15:45;9.47;;;2.43;;
18647;SDS011;9453;50.294;18.644;2022-12-29T05:18:15;6.27;;;2.53;;
18647;SDS011;9453;50.294;18.644;2022-12-29T05:20:44;5.27;;;2.23;;
18647;SDS011;9453;50.294;18.644;2022-12-29T05:23:12;6.57;;;2.30;;
18647;SDS011;9453;50.294;18.644;2022-12-29T05:25:40;5.50;;;2.10;;
18647;SDS011;9453;50.294;18.644;2022-12-29T05:28:07;5.10;;;2.10;;
18647;SDS011;9453;50.294;18.644;2022-12-29T05:30:34;4.77;;;2.30;;
18647;SDS011;9453;50.294;18.644;2022-12-29T05:33:01;5.50;;;2.80;;
18647;SDS011;9453;50.294;18.644;2022-12-29T05:35:31;3.97;;;2.37;;
18647;SDS011;9453;50.294;18.644;2022-12-29T05:38:00;4.87;;;2.17;;
18647;SDS011;9453;50.294;18.644;2022-12-29T05:40:27;5.00;;;2.40;;
18647;SDS011;9453;50.294;18.644;2022-12-29T05:42:55;5.23;;;2.40;;
18647;SDS011;9453;50.294;18.644;2022-12-29T05:45:22;6.87;;;3.03;;
18647;SDS011;9453;50.294;18.644;2022-12-29T05:47:49;8.40;;;2.50;;
18647;SDS011;9453;50.294;18.644;2022-12-29T05:50:16;6.27;;;2.67;;
18647;SDS011;9453;50.294;18.644;2022-12-29T05:52:43;6.97;;;2.47;;
18647;SDS011;9453;50.294;18.644;2022-12-29T05:55:12;5.47;;;2.73;;
18647;SDS011;9453;50.294;18.644;2022-12-29T05:57:39;6.83;;;2.27;;
18647;SDS011;9453;50.294;18.644;2022-12-29T06:00:06;5.87;;;2.97;;
18647;SDS011;9453;50.294;18.644;2022-12-29T06:02:35;5.53;;;2.53;;
18647;SDS011;9453;50.294;18.644;2022-12-29T06:05:02;9.60;;;3.73;;
18647;SDS011;9453;50.294;18.644;2022-12-29T06:07:30;5.70;;;2.67;;
18647;SDS011;9453;50.294;18.644;2022-12-29T06:09:57;6.87;;;3.23;;
18647;SDS011;9453;50.294;18.644;2022-12-29T06:12:26;5.17;;;2.90;;
18647;SDS011;9453;50.294;18.644;2022-12-29T06:14:53;9.03;;;3.13;;
18647;SDS011;9453;50.294;18.644;2022-12-29T06:17:20;8.03;;;3.13;;
18647;SDS011;9453;50.294;18.644;2022-12-29T06:19:47;6.63;;;2.83;;
18647;SDS011;9453;50.294;18.644;2022-12-29T06:22:14;8.23;;;2.83;;
18647;SDS011;9453;50.294;18.644;2022-12-29T06:24:41;6.27;;;2.57;;
18647;SDS011;9453;50.294;18.644;2022-12-29T06:27:09;5.03;;;2.37;;
18647;SDS011;9453;50.294;18.644;2022-12-29T06:29:37;5.53;;;2.43;;
18647;SDS011;9453;50.294;18.644;2022-12-29T06:32:06;5.93;;;2.70;;
18647;SDS011;9453;50.294;18.644;2022-12-29T06:34:33;6.17;;;2.73;;
18647;SDS011;9453;50.294;18.644;2022-12-29T06:37:00;6.07;;;2.93;;
18647;SDS011;9453;50.294;18.644;2022-12-29T06:39:27;7.07;;;3.10;;
18647;SDS011;9453;50.294;18.644;2022-12-29T06:41:55;5.87;;;2.77;;
18647;SDS011;9453;50.294;18.644;2022-12-29T06:44:22;6.83;;;3.00;;
18647;SDS011;9453;50.294;18.644;2022-12-29T06:46:51;6.30;;;2.80;;
18647;SDS011;9453;50.294;18.644;2022-12-29T06:49:18;8.83;;;3.23;;
18647;SDS011;9453;50.294;18.644;2022-12-29T06:51:45;7.33;;;3.27;;
18647;SDS011;9453;50.294;18.644;2022-12-29T06:54:12;8.83;;;3.80;;
18647;SDS011;9453;50.294;18.644;2022-12-29T06:56:40;8.80;;;4.43;;
18647;SDS011;9453;50.294;18.644;2022-12-29T06:59:08;9.17;;;4.10;;
18647;SDS011;9453;50.294;18.644;2022-12-29T07:01:36;13.23;;;4.10;;
18647;SDS011;9453;50.294;18.644;2022-12-29T07:04:04;9.27;;;4.03;;
18647;SDS011;9453;50.294;18.644;2022-12-29T07:06:31;8.33;;;4.07;;
18647;SDS011;9453;50.294;18.644;2022-12-29T07:08:58;7.93;;;3.43;;
18647;SDS011;9453;50.294;18.644;2022-12-29T07:11:26;7.03;;;2.80;;
18647;SDS011;9453;50.294;18.644;2022-12-29T07:13:53;8.20;;;3.10;;
18647;SDS011;9453;50.294;18.644;2022-12-29T07:16:21;10.50;;;3.40;;
18647;SDS011;9453;50.294;18.644;2022-12-29T07:18:48;5.50;;;2.93;;
18647;SDS011;9453;50.294;18.644;2022-12-29T07:21:16;7.97;;;3.57;;
18647;SDS011;9453;50.294;18.644;2022-12-29T07:23:44;7.00;;;3.10;;
18647;SDS011;9453;50.294;18.644;2022-12-29T07:26:12;6.53;;;3.00;;
18647;SDS011;9453;50.294;18.644;2022-12-29T07:28:42;6.80;;;3.13;;
18647;SDS011;9453;50.294;18.644;2022-12-29T07:31:12;6.63;;;3.47;;
18647;SDS011;9453;50.294;18.644;2022-12-29T07:33:42;7.13;;;3.67;;
18647;SDS011;9453;50.294;18.644;2022-12-29T07:36:09;7.70;;;3.10;;
18647;SDS011;9453;50.294;18.644;2022-12-29T07:38:38;8.20;;;3.43;;
18647;SDS011;9453;50.294;18.644;2022-12-29T07:41:05;8.63;;;3.60;;
18647;SDS011;9453;50.294;18.644;2022-12-29T07:43:33;8.47;;;4.43;;
18647;SDS011;9453;50.294;18.644;2022-12-29T07:46:01;7.33;;;3.83;;
18647;SDS011;9453;50.294;18.644;2022-12-29T07:48:28;9.07;;;4.83;;
18647;SDS011;9453;50.294;18.644;2022-12-29T07:50:58;16.00;;;4.27;;
18647;SDS011;9453;50.294;18.644;2022-12-29T07:53:25;8.90;;;4.17;;
18647;SDS011;9453;50.294;18.644;2022-12-29T07:55:53;7.33;;;3.57;;
18647;SDS011;9453;50.294;18.644;2022-12-29T07:58:20;13.97;;;4.30;;
18647;SDS011;9453;50.294;18.644;2022-12-29T08:00:47;11.87;;;4.10;;
18647;SDS011;9453;50.294;18.644;2022-12-29T08:03:18;11.10;;;4.20;;
18647;SDS011;9453;50.294;18.644;2022-12-29T08:05:45;9.83;;;4.30;;
18647;SDS011;9453;50.294;18.644;2022-12-29T08:08:12;9.87;;;4.10;;
18647;SDS011;9453;50.294;18.644;2022-12-29T08:10:40;10.20;;;3.90;;
18647;SDS011;9453;50.294;18.644;2022-12-29T08:13:08;9.33;;;4.30;;
18647;SDS011;9453;50.294;18.644;2022-12-29T08:15:37;9.30;;;3.77;;
18647;SDS011;9453;50.294;18.644;2022-12-29T08:18:04;9.80;;;4.10;;
18647;SDS011;9453;50.294;18.644;2022-12-29T08:20:31;11.23;;;4.60;;
18647;SDS011;9453;50.294;18.644;2022-12-29T08:22:59;12.23;;;4.40;;
18647;SDS011;9453;50.294;18.644;2022-12-29T08:25:26;12.07;;;4.30;;
18647;SDS011;9453;50.294;18.644;2022-12-29T08:27:53;11.53;;;4.40;;
18647;SDS011;9453;50.294;18.644;2022-12-29T08:30:21;16.33;;;4.70;;
18647;SDS011;9453;50.294;18.644;2022-12-29T08:32:48;10.40;;;4.47;;
18647;SDS011;9453;50.294;18.644;2022-12-29T08:35:15;12.63;;;5.63;;
18647;SDS011;9453;50.294;18.644;2022-12-29T08:37:42;12.03;;;5.50;;
18647;SDS011;9453;50.294;18.644;2022-12-29T08:40:10;14.37;;;5.20;;
18647;SDS011;9453;50.294;18.644;2022-12-29T08:42:38;14.10;;;5.33;;
18647;SDS011;9453;50.294;18.644;2022-12-29T08:45:06;9.50;;;4.83;;
18647;SDS011;9453;50.294;18.644;2022-12-29T08:47:36;17.90;;;5.77;;
18647;SDS011;9453;50.294;18.644;2022-12-29T08:50:04;13.30;;;5.47;;
18647;SDS011;9453;50.294;18.644;2022-12-29T08:52:31;14.10;;;5.13;;
18647;SDS011;9453;50.294;18.644;2022-12-29T08:55:00;11.37;;;5.40;;
18647;SDS011;9453;50.294;18.644;2022-12-29T08:57:27;13.50;;;5.80;;
18647;SDS011;9453;50.294;18.644;2022-12-29T08:59:54;14.63;;;5.70;;
18647;SDS011;9453;50.294;18.644;2022-12-29T09:02:21;12.43;;;5.53;;
18647;SDS011;9453;50.294;18.644;2022-12-29T09:04:49;18.73;;;6.77;;
18647;SDS011;9453;50.294;18.644;2022-12-29T09:07:17;17.53;;;5.50;;
18647;SDS011;9453;50.294;18.644;2022-12-29T09:09:44;11.80;;;5.00;;
18647;SDS011;9453;50.294;18.644;2022-12-29T09:12:11;13.07;;;5.27;;
18647;SDS011;9453;50.294;18.644;2022-12-29T09:14:38;17.03;;;5.97;;
18647;SDS011;9453;50.294;18.644;2022-12-29T09:17:05;13.93;;;5.77;;
18647;SDS011;9453;50.294;18.644;2022-12-29T09:19:50;11.73;;;4.67;;
18647;SDS011;9453;50.294;18.644;2022-12-29T09:22:18;13.27;;;5.13;;
18647;SDS011;9453;50.294;18.644;2022-12-29T09:24:45;9.03;;;4.23;;
18647;SDS011;9453;50.294;18.644;2022-12-29T09:27:12;9.57;;;4.40;;
18647;SDS011;9453;50.294;18.644;2022-12-29T09:29:39;9.80;;;4.53;;
18647;SDS011;9453;50.294;18.644;2022-12-29T09:32:07;12.70;;;5.30;;
18647;SDS011;9453;50.294;18.644;2022-12-29T09:34:34;9.93;;;3.87;;
18647;SDS011;9453;50.294;18.644;2022-12-29T09:37:02;9.57;;;4.07;;
18647;SDS011;9453;50.294;18.644;2022-12-29T09:39:30;7.90;;;3.70;;
18647;SDS011;9453;50.294;18.644;2022-12-29T09:41:58;14.20;;;5.10;;
18647;SDS011;9453;50.294;18.644;2022-12-29T09:44:38;7.83;;;3.80;;
18647;SDS011;9453;50.294;18.644;2022-12-29T09:47:14;13.13;;;4.33;;
18647;SDS011;9453;50.294;18.644;2022-12-29T09:49:44;9.10;;;4.40;;
18647;SDS011;9453;50.294;18.644;2022-12-29T09:52:17;10.80;;;4.30;;
18647;SDS011;9453;50.294;18.644;2022-12-29T09:54:50;11.23;;;4.17;;
18647;SDS011;9453;50.294;18.644;2022-12-29T09:57:21;9.53;;;4.00;;
18647;SDS011;9453;50.294;18.644;2022-12-29T09:59:52;10.23;;;4.03;;
18647;SDS011;9453;50.294;18.644;2022-12-29T10:02:33;12.93;;;4.37;;
18647;SDS011;9453;50.294;18.644;2022-12-29T10:05:09;10.33;;;4.63;;
18647;SDS011;9453;50.294;18.644;2022-12-29T10:07:48;10.63;;;4.50;;
18647;SDS011;9453;50.294;18.644;2022-12-29T10:10:29;10.73;;;4.20;;
18647;SDS011;9453;50.294;18.644;2022-12-29T10:13:06;9.17;;;4.33;;
18647;SDS011;9453;50.294;18.644;2022-12-29T10:15:50;8.97;;;4.40;;
18647;SDS011;9453;50.294;18.644;2022-12-29T10:18:31;12.23;;;4.07;;
18647;SDS011;9453;50.294;18.644;2022-12-29T10:21:14;8.43;;;4.07;;
18647;SDS011;9453;50.294;18.644;2022-12-29T10:23:50;12.37;;;5.80;;
18647;SDS011;9453;50.294;18.644;2022-12-29T10:26:20;11.10;;;5.30;;
18647;SDS011;9453;50.294;18.644;2022-12-29T10:28:50;15.17;;;5.87;;
18647;SDS011;9453;50.294;18.644;2022-12-29T10:31:22;13.47;;;5.80;;
18647;SDS011;9453;50.294;18.644;2022-12-29T10:33:51;14.40;;;5.13;;
18647;SDS011;9453;50.294;18.644;2022-12-29T10:36:24;14.50;;;5.43;;
18647;SDS011;9453;50.294;18.644;2022-12-29T10:39:01;13.13;;;4.87;;
18647;SDS011;9453;50.294;18.644;2022-12-29T10:41:36;11.53;;;5.37;;
18647;SDS011;9453;50.294;18.644;2022-12-29T10:44:06;11.37;;;4.67;;
18647;SDS011;9453;50.294;18.644;2022-12-29T10:46:37;10.73;;;4.87;;
18647;SDS011;9453;50.294;18.644;2022-12-29T10:49:04;11.50;;;4.50;;
18647;SDS011;9453;50.294;18.644;2022-12-29T10:51:33;8.80;;;4.00;;
18647;SDS011;9453;50.294;18.644;2022-12-29T10:54:06;10.17;;;4.30;;
18647;SDS011;9453;50.294;18.644;2022-12-29T10:56:42;8.67;;;4.33;;
18647;SDS011;9453;50.294;18.644;2022-12-29T10:59:14;9.97;;;4.60;;
18647;SDS011;9453;50.294;18.644;2022-12-29T11:01:46;9.87;;;4.07;;
18647;SDS011;9453;50.294;18.644;2022-12-29T11:04:23;9.43;;;4.27;;
18647;SDS011;9453;50.294;18.644;2022-12-29T11:06:58;8.67;;;3.60;;
18647;SDS011;9453;50.294;18.644;2022-12-29T11:09:29;9.30;;;4.13;;
18647;SDS011;9453;50.294;18.644;2022-12-29T11:12:00;8.83;;;4.30;;
18647;SDS011;9453;50.294;18.644;2022-12-29T11:14:27;13.43;;;4.27;;
18647;SDS011;9453;50.294;18.644;2022-12-29T11:16:56;10.87;;;4.67;;
18647;SDS011;9453;50.294;18.644;2022-12-29T11:19:26;9.30;;;4.10;;
18647;SDS011;9453;50.294;18.644;2022-12-29T11:21:56;9.37;;;4.10;;
18647;SDS011;9453;50.294;18.644;2022-12-29T11:24:44;8.57;;;3.93;;
18647;SDS011;9453;50.294;18.644;2022-12-29T11:27:14;6.97;;;3.70;;
18647;SDS011;9453;50.294;18.644;2022-12-29T11:29:42;11.03;;;4.47;;
18647;SDS011;9453;50.294;18.644;2022-12-29T11:32:11;6.70;;;3.43;;
18647;SDS011;9453;50.294;18.644;2022-12-29T11:34:39;9.73;;;4.37;;
18647;SDS011;9453;50.294;18.644;2022-12-29T11:37:09;9.20;;;4.00;;
18647;SDS011;9453;50.294;18.644;2022-12-29T11:39:39;8.00;;;3.90;;
18647;SDS011;9453;50.294;18.644;2022-12-29T11:42:13;8.87;;;4.30;;
18647;SDS011;9453;50.294;18.644;2022-12-29T11:44:43;13.43;;;4.80;;
18647;SDS011;9453;50.294;18.644;2022-12-29T11:47:13;9.70;;;4.23;;
18647;SDS011;9453;50.294;18.644;2022-12-29T11:49:49;9.03;;;4.60;;
18647;SDS011;9453;50.294;18.644;2022-12-29T11:52:20;10.17;;;3.97;;
18647;SDS011;9453;50.294;18.644;2022-12-29T11:54:50;11.63;;;4.67;;
18647;SDS011;9453;50.294;18.644;2022-12-29T11:57:19;8.10;;;3.97;;
18647;SDS011;9453;50.294;18.644;2022-12-29T11:59:49;7.70;;;3.80;;
18647;SDS011;9453;50.294;18.644;2022-12-29T12:05:15;8.03;;;3.80;;
18647;SDS011;9453;50.294;18.644;2022-12-29T12:07:49;10.70;;;4.03;;
18647;SDS011;9453;50.294;18.644;2022-12-29T12:10:24;13.50;;;4.40;;
18647;SDS011;9453;50.294;18.644;2022-12-29T12:13:11;11.17;;;4.07;;
18647;SDS011;9453;50.294;18.644;2022-12-29T12:15:47;8.70;;;4.33;;
18647;SDS011;9453;50.294;18.644;2022-12-29T12:18:19;9.90;;;4.70;;
18647;SDS011;9453;50.294;18.644;2022-12-29T12:20:57;9.27;;;4.70;;
18647;SDS011;9453;50.294;18.644;2022-12-29T12:23:34;9.40;;;3.93;;
18647;SDS011;9453;50.294;18.644;2022-12-29T12:26:09;8.90;;;3.93;;
18647;SDS011;9453;50.294;18.644;2022-12-29T12:28:42;12.97;;;5.00;;
18647;SDS011;9453;50.294;18.644;2022-12-29T12:31:23;10.17;;;4.27;;
18647;SDS011;9453;50.294;18.644;2022-12-29T12:34:01;12.87;;;5.00;;
18647;SDS011;9453;50.294;18.644;2022-12-29T12:36:37;11.40;;;4.93;;
18647;SDS011;9453;50.294;18.644;2022-12-29T12:39:23;12.10;;;4.50;;
18647;SDS011;9453;50.294;18.644;2022-12-29T12:41:56;11.70;;;4.67;;
18647;SDS011;9453;50.294;18.644;2022-12-29T12:44:34;11.90;;;5.10;;
18647;SDS011;9453;50.294;18.644;2022-12-29T12:47:13;9.30;;;4.40;;
18647;SDS011;9453;50.294;18.644;2022-12-29T12:50:08;8.53;;;3.90;;
18647;SDS011;9453;50.294;18.644;2022-12-29T12:53:01;10.83;;;4.90;;
18647;SDS011;9453;50.294;18.644;2022-12-29T12:55:49;13.77;;;5.83;;
18647;SDS011;9453;50.294;18.644;2022-12-29T12:58:31;10.33;;;4.70;;
18647;SDS011;9453;50.294;18.644;2022-12-29T13:01:10;14.07;;;5.27;;
18647;SDS011;9453;50.294;18.644;2022-12-29T13:03:47;13.40;;;5.20;;
18647;SDS011;9453;50.294;18.644;2022-12-29T13:06:33;13.03;;;5.37;;
18647;SDS011;9453;50.294;18.644;2022-12-29T13:09:10;10.07;;;5.17;;
18647;SDS011;9453;50.294;18.644;2022-12-29T13:12:00;11.87;;;5.97;;
18647;SDS011;9453;50.294;18.644;2022-12-29T13:14:39;9.47;;;4.30;;
18647;SDS011;9453;50.294;18.644;2022-12-29T13:17:19;11.37;;;4.83;;
18647;SDS011;9453;50.294;18.644;2022-12-29T13:19:54;11.87;;;5.30;;
18647;SDS011;9453;50.294;18.644;2022-12-29T13:22:29;8.43;;;4.20;;
18647;SDS011;9453;50.294;18.644;2022-12-29T13:25:08;14.60;;;5.23;;
18647;SDS011;9453;50.294;18.644;2022-12-29T13:27:47;12.47;;;5.03;;
18647;SDS011;9453;50.294;18.644;2022-12-29T13:30:20;12.77;;;6.10;;
18647;SDS011;9453;50.294;18.644;2022-12-29T13:32:55;11.07;;;5.07;;
18647;SDS011;9453;50.294;18.644;2022-12-29T13:35:29;13.67;;;5.50;;
18647;SDS011;9453;50.294;18.644;2022-12-29T13:38:08;14.13;;;5.30;;
18647;SDS011;9453;50.294;18.644;2022-12-29T13:40:40;12.70;;;5.30;;
18647;SDS011;9453;50.294;18.644;2022-12-29T13:43:09;11.27;;;5.37;;
18647;SDS011;9453;50.294;18.644;2022-12-29T13:45:38;15.67;;;5.57;;
18647;SDS011;9453;50.294;18.644;2022-12-29T13:48:11;14.53;;;6.13;;
18647;SDS011;9453;50.294;18.644;2022-12-29T13:50:44;11.37;;;5.13;;
18647;SDS011;9453;50.294;18.644;2022-12-29T13:53:19;11.60;;;5.53;;
18647;SDS011;9453;50.294;18.644;2022-12-29T13:55:55;13.03;;;5.60;;
18647;SDS011;9453;50.294;18.644;2022-12-29T13:58:27;14.47;;;6.47;;
18647;SDS011;9453;50.294;18.644;2022-12-29T14:01:02;15.37;;;5.87;;
18647;SDS011;9453;50.294;18.644;2022-12-29T14:03:57;14.87;;;5.83;;
18647;SDS011;9453;50.294;18.644;2022-12-29T14:06:26;13.70;;;5.90;;
18647;SDS011;9453;50.294;18.644;2022-12-29T14:08:56;10.83;;;5.20;;
18647;SDS011;9453;50.294;18.644;2022-12-29T14:11:28;16.80;;;6.33;;
18647;SDS011;9453;50.294;18.644;2022-12-29T14:13:57;15.57;;;6.33;;
18647;SDS011;9453;50.294;18.644;2022-12-29T14:16:32;13.00;;;5.10;;
18647;SDS011;9453;50.294;18.644;2022-12-29T14:19:09;17.90;;;6.77;;
18647;SDS011;9453;50.294;18.644;2022-12-29T14:21:40;16.17;;;7.17;;
18647;SDS011;9453;50.294;18.644;2022-12-29T14:24:37;17.07;;;6.40;;
18647;SDS011;9453;50.294;18.644;2022-12-29T14:33:16;14.33;;;6.43;;
18647;SDS011;9453;50.294;18.644;2022-12-29T14:35:46;13.73;;;5.47;;
18647;SDS011;9453;50.294;18.644;2022-12-29T14:38:27;16.33;;;6.47;;
18647;SDS011;9453;50.294;18.644;2022-12-29T14:41:16;13.20;;;6.17;;
18647;SDS011;9453;50.294;18.644;2022-12-29T14:44:02;14.30;;;6.30;;
18647;SDS011;9453;50.294;18.644;2022-12-29T14:46:45;10.87;;;5.87;;
18647;SDS011;9453;50.294;18.644;2022-12-29T14:49:16;12.43;;;6.27;;
18647;SDS011;9453;50.294;18.644;2022-12-29T14:51:48;12.33;;;6.27;;
18647;SDS011;9453;50.294;18.644;2022-12-29T14:57:14;15.13;;;6.00;;
18647;SDS011;9453;50.294;18.644;2022-12-29T14:59:48;12.20;;;5.73;;
18647;SDS011;9453;50.294;18.644;2022-12-29T15:02:21;13.07;;;5.37;;
18647;SDS011;9453;50.294;18.644;2022-12-29T15:04:51;10.77;;;4.67;;
18647;SDS011;9453;50.294;18.644;2022-12-29T15:07:26;14.60;;;5.53;;
18647;SDS011;9453;50.294;18.644;2022-12-29T15:09:56;9.70;;;5.10;;
18647;SDS011;9453;50.294;18.644;2022-12-29T15:12:30;10.33;;;4.77;;
18647;SDS011;9453;50.294;18.644;2022-12-29T15:15:10;11.97;;;5.33;;
18647;SDS011;9453;50.294;18.644;2022-12-29T15:17:44;11.80;;;5.60;;
18647;SDS011;9453;50.294;18.644;2022-12-29T15:20:17;9.80;;;5.10;;
18647;SDS011;9453;50.294;18.644;2022-12-29T15:22:53;12.07;;;5.57;;
18647;SDS011;9453;50.294;18.644;2022-12-29T15:25:22;10.13;;;5.53;;
18647;SDS011;9453;50.294;18.644;2022-12-29T15:27:50;13.63;;;5.67;;
18647;SDS011;9453;50.294;18.644;2022-12-29T15:30:19;11.43;;;4.87;;
18647;SDS011;9453;50.294;18.644;2022-12-29T15:32:47;10.40;;;5.23;;
18647;SDS011;9453;50.294;18.644;2022-12-29T15:35:28;13.33;;;5.13;;
18647;SDS011;9453;50.294;18.644;2022-12-29T15:37:58;12.93;;;6.03;;
18647;SDS011;9453;50.294;18.644;2022-12-29T15:40:28;11.30;;;5.20;;
18647;SDS011;9453;50.294;18.644;2022-12-29T15:43:12;15.27;;;5.90;;
18647;SDS011;9453;50.294;18.644;2022-12-29T15:45:50;12.57;;;5.93;;
18647;SDS011;9453;50.294;18.644;2022-12-29T15:48:20;10.17;;;5.13;;
18647;SDS011;9453;50.294;18.644;2022-12-29T15:50:49;11.97;;;5.77;;
18647;SDS011;9453;50.294;18.644;2022-12-29T15:53:19;12.63;;;5.67;;
18647;SDS011;9453;50.294;18.644;2022-12-29T15:55:53;11.27;;;5.77;;
18647;SDS011;9453;50.294;18.644;2022-12-29T15:58:23;13.30;;;5.60;;
18647;SDS011;9453;50.294;18.644;2022-12-29T16:00:52;11.73;;;5.87;;
18647;SDS011;9453;50.294;18.644;2022-12-29T16:03:22;12.00;;;5.43;;
18647;SDS011;9453;50.294;18.644;2022-12-29T16:05:52;14.73;;;6.73;;
18647;SDS011;9453;50.294;18.644;2022-12-29T16:08:33;15.90;;;6.70;;
18647;SDS011;9453;50.294;18.644;2022-12-29T16:11:03;16.77;;;7.63;;
18647;SDS011;9453;50.294;18.644;2022-12-29T16:13:34;15.60;;;6.70;;
18647;SDS011;9453;50.294;18.644;2022-12-29T16:16:07;13.47;;;6.90;;
18647;SDS011;9453;50.294;18.644;2022-12-29T16:18:40;14.37;;;6.23;;
18647;SDS011;9453;50.294;18.644;2022-12-29T16:21:13;14.33;;;7.13;;
18647;SDS011;9453;50.294;18.644;2022-12-29T16:23:46;16.90;;;6.70;;
18647;SDS011;9453;50.294;18.644;2022-12-29T16:26:16;14.60;;;6.40;;
18647;SDS011;9453;50.294;18.644;2022-12-29T16:28:46;17.07;;;6.70;;
18647;SDS011;9453;50.294;18.644;2022-12-29T16:31:19;18.80;;;7.43;;
18647;SDS011;9453;50.294;18.644;2022-12-29T16:33:49;15.10;;;6.63;;
18647;SDS011;9453;50.294;18.644;2022-12-29T16:36:21;15.37;;;7.70;;
18647;SDS011;9453;50.294;18.644;2022-12-29T16:41:59;22.73;;;8.30;;
18647;SDS011;9453;50.294;18.644;2022-12-29T16:44:27;21.80;;;8.73;;
18647;SDS011;9453;50.294;18.644;2022-12-29T16:49:51;22.43;;;9.23;;
18647;SDS011;9453;50.294;18.644;2022-12-29T16:52:20;20.20;;;8.77;;
18647;SDS011;9453;50.294;18.644;2022-12-29T16:54:51;19.33;;;8.03;;
18647;SDS011;9453;50.294;18.644;2022-12-29T16:57:24;22.63;;;8.90;;
18647;SDS011;9453;50.294;18.644;2022-12-29T16:59:55;22.30;;;9.30;;
18647;SDS011;9453;50.294;18.644;2022-12-29T17:02:24;19.27;;;8.83;;
18647;SDS011;9453;50.294;18.644;2022-12-29T17:04:54;23.93;;;10.13;;
18647;SDS011;9453;50.294;18.644;2022-12-29T17:07:22;20.50;;;9.63;;
18647;SDS011;9453;50.294;18.644;2022-12-29T17:09:50;21.67;;;8.40;;
18647;SDS011;9453;50.294;18.644;2022-12-29T17:12:19;24.30;;;8.90;;
18647;SDS011;9453;50.294;18.644;2022-12-29T17:14:50;23.47;;;8.93;;
18647;SDS011;9453;50.294;18.644;2022-12-29T17:17:21;19.37;;;8.33;;
18647;SDS011;9453;50.294;18.644;2022-12-29T17:19:59;19.90;;;8.47;;
18647;SDS011;9453;50.294;18.644;2022-12-29T17:22:29;22.37;;;7.70;;
18647;SDS011;9453;50.294;18.644;2022-12-29T17:24:57;18.40;;;7.50;;
18647;SDS011;9453;50.294;18.644;2022-12-29T17:27:27;22.10;;;7.63;;
18647;SDS011;9453;50.294;18.644;2022-12-29T17:29:59;22.17;;;8.43;;
18647;SDS011;9453;50.294;18.644;2022-12-29T17:32:30;22.23;;;9.23;;
18647;SDS011;9453;50.294;18.644;2022-12-29T17:34:58;21.37;;;8.10;;
18647;SDS011;9453;50.294;18.644;2022-12-29T17:37:30;20.80;;;8.47;;
18647;SDS011;9453;50.294;18.644;2022-12-29T17:39:59;24.43;;;8.67;;
18647;SDS011;9453;50.294;18.644;2022-12-29T17:42:26;23.03;;;8.93;;
18647;SDS011;9453;50.294;18.644;2022-12-29T17:44:54;20.27;;;9.03;;
18647;SDS011;9453;50.294;18.644;2022-12-29T17:47:23;19.37;;;8.53;;
18647;SDS011;9453;50.294;18.644;2022-12-29T17:49:50;20.20;;;7.80;;
18647;SDS011;9453;50.294;18.644;2022-12-29T17:52:19;18.47;;;8.10;;
18647;SDS011;9453;50.294;18.644;2022-12-29T17:54:46;48.88;;;19.83;;
18647;SDS011;9453;50.294;18.644;2022-12-29T17:57:17;59.80;;;24.20;;
18647;SDS011;9453;50.294;18.644;2022-12-29T17:59:45;58.17;;;20.43;;
18647;SDS011;9453;50.294;18.644;2022-12-29T18:02:18;31.70;;;11.73;;
18647;SDS011;9453;50.294;18.644;2022-12-29T18:04:54;57.37;;;19.97;;
18647;SDS011;9453;50.294;18.644;2022-12-29T18:07:23;52.03;;;18.40;;
18647;SDS011;9453;50.294;18.644;2022-12-29T18:09:52;43.30;;;16.00;;
18647;SDS011;9453;50.294;18.644;2022-12-29T18:12:24;38.43;;;14.17;;
18647;SDS011;9453;50.294;18.644;2022-12-29T18:14:55;25.93;;;10.20;;
18647;SDS011;9453;50.294;18.644;2022-12-29T18:17:22;22.53;;;9.07;;
18647;SDS011;9453;50.294;18.644;2022-12-29T18:19:51;21.43;;;8.97;;
18647;SDS011;9453;50.294;18.644;2022-12-29T18:22:22;19.40;;;7.70;;
18647;SDS011;9453;50.294;18.644;2022-12-29T18:24:53;21.97;;;8.93;;
18647;SDS011;9453;50.294;18.644;2022-12-29T18:27:20;19.60;;;8.87;;
18647;SDS011;9453;50.294;18.644;2022-12-29T18:29:47;24.70;;;7.93;;
18647;SDS011;9453;50.294;18.644;2022-12-29T18:32:15;19.53;;;8.83;;
18647;SDS011;9453;50.294;18.644;2022-12-29T18:34:42;19.27;;;8.57;;
18647;SDS011;9453;50.294;18.644;2022-12-29T18:37:11;26.57;;;10.60;;
18647;SDS011;9453;50.294;18.644;2022-12-29T18:39:39;22.83;;;9.83;;
18647;SDS011;9453;50.294;18.644;2022-12-29T18:42:06;30.00;;;11.13;;
18647;SDS011;9453;50.294;18.644;2022-12-29T18:44:35;43.03;;;14.70;;
18647;SDS011;9453;50.294;18.644;2022-12-29T18:47:02;45.63;;;15.93;;
18647;SDS011;9453;50.294;18.644;2022-12-29T18:49:31;38.67;;;14.03;;
18647;SDS011;9453;50.294;18.644;2022-12-29T18:51:58;22.87;;;10.03;;
18647;SDS011;9453;50.294;18.644;2022-12-29T18:54:28;20.23;;;8.73;;
18647;SDS011;9453;50.294;18.644;2022-12-29T18:56:56;24.20;;;9.00;;
18647;SDS011;9453;50.294;18.644;2022-12-29T18:59:24;16.30;;;8.03;;
18647;SDS011;9453;50.294;18.644;2022-12-29T19:01:51;27.17;;;10.03;;
18647;SDS011;9453;50.294;18.644;2022-12-29T19:04:19;26.60;;;9.97;;
18647;SDS011;9453;50.294;18.644;2022-12-29T19:06:46;22.33;;;9.00;;
18647;SDS011;9453;50.294;18.644;2022-12-29T19:09:14;26.30;;;9.80;;
18647;SDS011;9453;50.294;18.644;2022-12-29T19:11:43;32.60;;;10.13;;
18647;SDS011;9453;50.294;18.644;2022-12-29T19:14:14;21.17;;;8.70;;
18647;SDS011;9453;50.294;18.644;2022-12-29T19:16:42;28.33;;;10.67;;
18647;SDS011;9453;50.294;18.644;2022-12-29T19:19:13;35.23;;;10.30;;
18647;SDS011;9453;50.294;18.644;2022-12-29T19:21:41;23.27;;;8.43;;
18647;SDS011;9453;50.294;18.644;2022-12-29T19:24:08;32.47;;;12.33;;
18647;SDS011;9453;50.294;18.644;2022-12-29T19:26:37;36.57;;;11.27;;
18647;SDS011;9453;50.294;18.644;2022-12-29T19:29:09;22.30;;;9.70;;
18647;SDS011;9453;50.294;18.644;2022-12-29T19:31:39;23.13;;;8.50;;
18647;SDS011;9453;50.294;18.644;2022-12-29T19:34:06;24.10;;;9.83;;
18647;SDS011;9453;50.294;18.644;2022-12-29T19:36:33;31.63;;;13.00;;
18647;SDS011;9453;50.294;18.644;2022-12-29T19:39:01;40.47;;;13.50;;
18647;SDS011;9453;50.294;18.644;2022-12-29T19:41:28;28.37;;;11.23;;
18647;SDS011;9453;50.294;18.644;2022-12-29T19:43:55;25.73;;;9.53;;
18647;SDS011;9453;50.294;18.644;2022-12-29T19:46:24;19.47;;;8.83;;
18647;SDS011;9453;50.294;18.644;2022-12-29T19:48:51;17.27;;;8.60;;
18647;SDS011;9453;50.294;18.644;2022-12-29T19:51:19;24.57;;;9.93;;
18647;SDS011;9453;50.294;18.644;2022-12-29T19:53:46;24.07;;;10.63;;
18647;SDS011;9453;50.294;18.644;2022-12-29T19:56:15;26.27;;;10.10;;
18647;SDS011;9453;50.294;18.644;2022-12-29T19:58:42;29.63;;;10.67;;
18647;SDS011;9453;50.294;18.644;2022-12-29T20:01:10;28.67;;;10.97;;
18647;SDS011;9453;50.294;18.644;2022-12-29T20:03:40;31.63;;;12.50;;
18647;SDS011;9453;50.294;18.644;2022-12-29T20:06:07;44.33;;;14.47;;
18647;SDS011;9453;50.294;18.644;2022-12-29T20:08:36;37.27;;;13.87;;
18647;SDS011;9453;50.294;18.644;2022-12-29T20:11:06;35.23;;;13.50;;
18647;SDS011;9453;50.294;18.644;2022-12-29T20:13:36;30.73;;;11.37;;
18647;SDS011;9453;50.294;18.644;2022-12-29T20:16:04;27.37;;;11.03;;
18647;SDS011;9453;50.294;18.644;2022-12-29T20:18:33;24.80;;;9.97;;
18647;SDS011;9453;50.294;18.644;2022-12-29T20:21:03;26.27;;;10.63;;